Historyczne dane pomiarowe

Dodano dane terminowe – wersja testowa.

Dane z okresu 1951-2019

Wersja bazy: 1.34 [2019-03-16, lista zmian], aktualizacja planowana na 2019-04-15

Dane meteo z obszaru Polski uzyskane na podstawie danych udostępnionych przez Instytut Meteorologii i Gospodarki Wodnej – Państwowy Instytut Badawczy.

 

Wybierz Datę:    

       

TemperaturaWilgotnośćWiatrCiśnienieOpadyŚniegCzas trwania zjawisk
 Stacja t tx tn tng RH VA  wxwx mslp ppp RRR   cm mm wxwxwxwxwxwxwx
1999-08-14 16.4 21.4 11.8 9.3 78.8- 5.7 4.7---- 0.0------------
1999-08-13 17.2 22.4 13.4 12.8 75.8- 6.0 4.0---- 0.0------------
1999-08-12 16.6 21.9 11.8 9.3 77.5- 6.0 2.7---- 0.0------------
1999-08-11 20.9 25.9 16.4 15.3 82.8- 3.3 2.7---- 0.0------------
1999-08-10 21.0 28.4 14.9 12.8 76.3- 6.3 2.3---- 1.2------------
1999-08-09 23.2 29.4 18.5 16.7 77.5- 6.7 2.7---- 0.0------------
1999-08-08 20.3 25.4 16.4 12.8 93.3- 6.3 2.0---- 1.6------------
1999-08-07 21.8 29.9 13.9 11.8 70.0- 2.3 2.0---- 0.4------------
1999-08-06 20.6 27.9 13.9 10.8 69.3- 3.3 2.0---- 13.0------------
1999-08-05 19.6 28.9 10.4 10.3 69.3- 4.0 1.3---- 0.0------------
1999-08-04 18.2 27.1 9.3 8.8 72.0- 6.7 1.3---- 0.0------------
1999-08-03 18.5 27.4 9.3 6.4 65.3- 2.7 2.7---- 0.0------------
1999-08-02 18.9 27.4 10.3 6.9 66.5- 3.3 1.7---- 0.0------------
1999-08-01 18.6 26.4 10.8 8.3 68.5- 4.7 2.3---- 0.0------------
1999-07-31 20.4 28.4 11.8 8.3 60.8- 0.0 2.7---- 0.0------------
1999-07-30 19.9 26.9 11.3 9.3 65.0- 1.0 2.0---- 0.0------------
1999-07-29 18.8 25.9 10.8 8.3 71.3- 2.0 2.0---- 0.0------------
1999-07-28 18.1 24.4 12.8 10.8 76.0- 5.3 2.0---- 1.6------------
1999-07-27 19.0 24.9 14.4 14.3 72.3- 3.0 2.0---- 0.0------------
1999-07-26 22.1 28.9 16.4 14.3 76.3- 3.3 2.0---- 0.0------------
1999-07-25 19.2 26.9 11.3 7.8 81.3- 3.3 2.3---- 0.0------------
1999-07-24 18.0 22.9 12.3 8.8 74.8- 5.7 2.0---- 0.0------------
1999-07-23 16.6 20.9 11.3 9.3 80.3- 8.0 2.0---- 0.0------------
1999-07-22 19.3 23.5 15.9 13.3 75.5- 5.7 3.3---- 0.0------------
1999-07-21 22.9 29.4 17.5 15.3 70.5- 5.3 3.3---- 0.4------------
1999-07-20 21.8 29.9 12.8 10.8 74.5- 0.0 1.7---- 0.0------------
1999-07-19 22.3 28.9 14.9 12.3 64.8- 3.7 2.0---- 0.0------------
1999-07-18 19.2 26.4 11.8 9.3 78.3- 3.7 2.0---- 0.0------------
1999-07-17 17.2 23.4 8.8 7.8 76.3- 2.3 2.3---- 0.0------------
1999-07-16 16.0 22.4 10.8 8.3 82.8- 3.3 2.0---- 3.7------------
1999-07-15 17.9 22.4 13.4 13.3 83.0- 7.3 1.3---- 0.0------------
1999-07-14 21.2 25.9 17.5 16.3 81.5- 5.0 3.3---- 10.6------------
1999-07-13 22.6 28.9 15.9 13.3 60.0- 4.3 3.3---- 0.0------------
1999-07-12 21.5 27.4 13.4 10.8 62.0- 4.7 2.0---- 0.0------------
1999-07-11 20.2 27.4 11.8 8.3 63.0- 0.0 2.0---- 0.0------------
1999-07-10 20.5 25.4 13.9 10.8 59.3- 0.7 3.3---- 0.0------------
1999-07-09 19.8 26.4 14.4 14.3 80.8- 5.7 2.7---- 0.0------------
1999-07-08 18.8 21.4 15.4 14.3 90.0- 7.3 1.3---- 3.5------------
1999-07-07 21.0 25.4 17.4 17.2 88.0- 7.0 2.7---- 0.0------------
1999-07-06 25.0 31.8 19.0 16.7 68.8- 3.3 3.3---- 2.7------------
1999-07-05 25.6 31.8 19.5 16.7 69.8- 1.3 1.3---- 0.0------------
1999-07-04 23.3 30.4 14.9 12.8 73.3- 3.0 2.0---- 0.0------------
1999-07-03 20.1 25.9 13.4 11.8 79.8- 4.7 1.0---- 0.7------------
1999-07-02 19.5 24.9 14.9 11.8 87.0- 5.7 2.0---- 0.8------------
1999-07-01 20.6 26.9 12.3 9.3 74.8- 4.0 1.0---- 7.0------------
1999-06-30 19.4 25.4 11.8 9.8 72.8- 4.7 1.0---- 0.0------------
1999-06-29 20.0 25.9 14.9 14.3 75.5- 2.7 2.3---- 0.0------------
1999-06-28 21.5 28.4 11.8 8.3 67.3- 2.0 2.0---- 0.0------------
1999-06-27 19.6 24.9 12.8 10.8 64.0- 2.0 2.7---- 0.0------------
1999-06-26 15.0 20.9 8.4 5.9 81.0- 3.7 2.0---- 0.0------------
1999-06-25 13.9 19.9 9.8 7.8 87.0- 5.3 2.0---- 7.2------------
1999-06-24 13.6 16.4 10.8 10.8 89.5- 7.0 2.0---- 1.6------------
1999-06-23 11.8 14.1 10.8 10.3 97.0- 8.0 3.3---- 15.4------------
1999-06-22 14.6 17.9 12.8 12.8 92.8- 7.7 2.7---- 1.8------------
1999-06-21 18.4 22.9 15.4 14.8 90.0- 7.7 2.7---- 2.7------------
1999-06-20 19.5 23.9 15.9 15.3 87.5- 7.3 2.0---- 0.0------------
1999-06-19 20.5 25.9 14.9 13.8 87.3- 4.0 2.0---- 0.0------------
1999-06-18 17.9 20.9 15.9 9.3 91.8- 8.0 2.0---- 14.6------------
1999-06-17 19.2 22.9 15.4 14.3 87.0- 8.0 2.0---- 79.4------------
1999-06-16 19.5 23.4 17.0 16.3 86.8- 7.3 2.0---- 0.0------------
316.8 ms

 

Źródłem pochodzenia danych jest Instytut Meteorologii i Gospodarki Wodnej – Państwowy Instytut Badawczy. Dane Instytutu Meteorologii i Gospodarki Wodnej – Państwowego Instytutu Badawczego zostały przetworzone.

Dane źródłowe można odnaleźć na stronie https://dane.imgw.pl